Time;durP1;ratioP1;P1;durP2;ratioP2;P2;SDS_P1;SDS_P2;PMS_P1;PMS_P2;Temp;Humidity;BMP_temperature;BMP_pressure;BME280_temperature;BME280_humidity;BME280_pressure;Samples;Min_cycle;Max_cycle;Signal;HPM_P1;HPM_P2
2022/11/15 00:00:28;;;;;;;12.38;2.35;;;11.30;1.00;;;;;;6126776;23;20102;-76
2022/11/15 00:02:54;;;;;;;;;;;11.30;1.00;;;;;;6127002;23;20407;-77
2022/11/15 00:05:19;;;;;;;13.38;2.60;;;11.30;1.00;;;;;;6126877;23;19924;-75
2022/11/15 00:07:45;;;;;;;9.65;2.00;;;11.40;1.00;;;;;;6126871;23;20033;-77
2022/11/15 00:10:11;;;;;;;15.05;2.25;;;11.40;1.00;;;;;;6126419;23;20002;-76
2022/11/15 00:12:37;;;;;;;12.18;2.30;;;11.50;1.00;;;;;;6126699;23;20341;-76
2022/11/15 00:15:03;;;;;;;16.13;2.15;;;11.50;1.00;;;;;;6126924;23;20500;-76
2022/11/15 00:17:29;;;;;;;;;;;11.60;1.00;;;;;;6126549;23;20008;-75
2022/11/15 00:19:55;;;;;;;13.68;2.65;;;11.60;1.00;;;;;;6126738;23;19901;-77
2022/11/15 00:22:21;;;;;;;15.60;2.00;;;11.60;1.00;;;;;;6125939;23;20422;-76
2022/11/15 00:24:47;;;;;;;15.73;2.28;;;11.70;1.00;;;;;;6126516;23;20029;-75
2022/11/15 00:27:13;;;;;;;17.13;2.80;;;11.70;99.90;;;;;;6099589;23;20014;-77
2022/11/15 00:29:43;;;;;;;11.50;2.40;;;11.70;99.90;;;;;;6125100;23;20006;-75
2022/11/15 00:32:12;;;;;;;14.88;2.10;;;11.70;99.90;;;;;;6124835;23;20010;-74
2022/11/15 00:34:37;;;;;;;11.55;1.88;;;11.80;99.90;;;;;;6126258;23;20002;-77
2022/11/15 00:37:03;;;;;;;;;;;11.70;99.90;;;;;;6126249;23;20028;-78
2022/11/15 00:39:29;;;;;;;14.48;2.53;;;11.80;99.90;;;;;;6126824;23;19908;-77
2022/11/15 00:41:55;;;;;;;10.43;2.25;;;11.80;99.90;;;;;;6126433;23;20069;-77
2022/11/15 00:44:20;;;;;;;13.13;2.22;;;11.80;99.90;;;;;;6124977;23;20401;-77
2022/11/15 00:46:46;;;;;;;13.88;2.30;;;11.80;99.90;;;;;;6126155;23;20336;-76
2022/11/15 00:49:12;;;;;;;17.95;2.60;;;11.80;99.90;;;;;;6126341;23;20029;-78
2022/11/15 00:51:38;;;;;;;14.55;2.30;;;11.90;99.90;;;;;;6126509;23;20339;-75
2022/11/15 00:54:04;;;;;;;16.60;2.40;;;11.90;99.90;;;;;;6126750;23;20002;-76
2022/11/15 00:56:30;;;;;;;;;;;12.00;99.90;;;;;;6126143;23;20342;-75
2022/11/15 00:58:56;;;;;;;12.57;2.25;;;12.00;99.90;;;;;;6126191;23;19939;-76
2022/11/15 01:01:21;;;;;;;;;;;12.10;99.90;;;;;;6127113;23;19998;-77
2022/11/15 01:03:47;;;;;;;11.52;2.10;;;12.10;99.90;;;;;;6126740;23;20328;-76
2022/11/15 01:06:13;;;;;;;10.73;1.80;;;12.10;99.90;;;;;;6126240;23;20499;-76
2022/11/15 01:08:39;;;;;;;;;;;12.10;99.90;;;;;;6126885;23;20009;-77
2022/11/15 01:11:08;;;;;;;11.57;2.28;;;12.10;99.90;;;;;;6125860;23;19901;-75
2022/11/15 01:13:35;;;;;;;11.30;2.17;;;12.20;99.90;;;;;;6126144;23;20504;-75
2022/11/15 01:16:16;;;;;;;15.32;2.22;;;12.20;99.90;;;;;;6126173;23;20049;-75
2022/11/15 01:18:42;;;;;;;13.30;2.20;;;12.20;99.90;;;;;;6126358;23;19998;-77
2022/11/15 01:21:13;;;;;;;;;;;12.20;99.90;;;;;;6127099;23;20001;-76
2022/11/15 01:23:39;;;;;;;10.63;2.15;;;12.20;99.90;;;;;;6125978;23;19920;-77
2022/11/15 01:26:05;;;;;;;;;;;12.30;99.90;;;;;;6093027;23;20002;-75
2022/11/15 01:28:32;;;;;;;12.80;1.98;;;12.20;99.90;;;;;;6125096;23;19907;-76
2022/11/15 01:31:03;;;;;;;14.40;2.03;;;12.30;99.90;;;;;;6093148;23;20005;-75
2022/11/15 01:33:29;;;;;;;14.55;2.17;;;12.40;99.90;;;;;;6126993;23;20484;-77
2022/11/15 01:35:55;;;;;;;14.82;2.40;;;12.40;99.90;;;;;;6127299;23;20334;-76
2022/11/15 01:38:22;;;;;;;14.80;2.38;;;12.40;99.90;;;;;;6128024;23;20002;-75
2022/11/15 01:40:48;;;;;;;13.18;2.20;;;12.40;99.90;;;;;;6127183;23;20002;-76
2022/11/15 01:43:23;;;;;;;11.90;1.98;;;12.40;99.90;;;;;;6128224;23;20348;-77
2022/11/15 01:45:57;;;;;;;10.60;1.77;;;12.50;99.90;;;;;;6126397;23;20006;-76
2022/11/15 01:48:29;;;;;;;12.85;2.15;;;12.50;99.90;;;;;;6128039;23;20002;-76
2022/11/15 01:50:55;;;;;;;12.02;2.15;;;12.50;99.90;;;;;;6127942;23;20009;-75
2022/11/15 01:53:22;;;;;;;12.68;2.13;;;12.50;99.90;;;;;;6127686;23;20029;-75
2022/11/15 01:55:48;;;;;;;13.07;2.00;;;12.50;99.90;;;;;;6127948;23;19998;-76
2022/11/15 01:58:14;;;;;;;;;;;12.50;99.90;;;;;;6128176;23;20006;-76
2022/11/15 02:00:40;;;;;;;9.77;1.75;;;12.50;99.90;;;;;;6126199;23;19945;-76
2022/11/15 02:03:05;;;;;;;10.75;2.10;;;12.50;99.90;;;;;;6125775;23;20010;-75
2022/11/15 02:05:31;;;;;;;;;;;12.60;99.90;;;;;;6128378;23;20005;-75
2022/11/15 02:07:57;;;;;;;14.05;2.22;;;12.60;99.90;;;;;;6127816;23;19901;-77
2022/11/15 02:10:23;;;;;;;;;;;12.60;99.90;;;;;;6127844;23;20124;-74
2022/11/15 02:12:50;;;;;;;14.25;2.10;;;12.60;99.90;;;;;;6127482;23;19927;-76
2022/11/15 02:15:17;;;;;;;17.70;2.92;;;12.60;99.90;;;;;;6126016;23;20002;-76
2022/11/15 02:18:08;;;;;;;11.23;2.22;;;12.60;99.90;;;;;;6127564;23;20008;-75
2022/11/15 02:20:44;;;;;;;12.20;1.95;;;12.60;99.90;;;;;;6127978;23;20434;-76
2022/11/15 02:23:36;;;;;;;16.33;2.35;;;12.60;99.90;;;;;;6127109;23;20021;-77
2022/11/15 02:26:26;;;;;;;16.50;2.00;;;12.70;99.90;;;;;;6127364;23;20012;-77
2022/11/15 02:29:21;;;;;;;11.70;2.22;;;12.60;99.90;;;;;;6127555;23;20006;-76
2022/11/15 02:31:50;;;;;;;13.85;2.50;;;12.70;99.90;;;;;;6127312;23;20006;-76
2022/11/15 02:34:51;;;;;;;11.65;1.83;;;12.70;99.90;;;;;;6115473;23;20405;-76
2022/11/15 02:37:18;;;;;;;12.02;1.95;;;12.70;99.90;;;;;;6127546;23;19998;-75
2022/11/15 02:39:44;;;;;;;15.27;2.25;;;12.70;99.90;;;;;;6127626;23;20002;-77
2022/11/15 02:45:24;;;;;;;14.10;2.10;;;12.70;99.90;;;;;;6127003;23;20247;-75
2022/11/15 02:47:54;;;;;;;11.52;1.98;;;12.70;99.90;;;;;;6127346;23;20044;-76
2022/11/15 02:50:24;;;;;;;12.95;2.00;;;12.70;99.90;;;;;;6127376;23;20013;-76
2022/11/15 02:52:50;;;;;;;13.00;2.40;;;12.70;99.90;;;;;;6126949;23;20028;-77
2022/11/15 02:55:48;;;;;;;13.32;2.00;;;12.70;99.90;;;;;;6127196;23;20010;-76
2022/11/15 02:58:59;;;;;;;15.35;2.42;;;12.70;99.90;;;;;;6115245;23;20052;-77
2022/11/15 03:01:38;;;;;;;10.02;2.00;;;12.50;99.90;;;;;;6126880;23;20070;-76
2022/11/15 03:04:18;;;;;;;13.50;2.28;;;12.30;99.90;;;;;;6127326;23;20385;-76
2022/11/15 03:07:11;;;;;;;16.42;1.88;;;12.30;1.00;;;;;;6127332;23;20006;-76
2022/11/15 03:10:15;;;;;;;12.02;1.80;;;12.30;1.00;;;;;;6125831;23;20002;-76
2022/11/15 03:12:55;;;;;;;11.18;2.10;;;12.20;1.00;;;;;;6126071;23;20006;-76
2022/11/15 03:15:28;;;;;;;15.02;2.38;;;12.20;1.00;;;;;;6127100;23;20002;-75
2022/11/15 03:18:01;;;;;;;14.52;2.28;;;12.20;1.00;;;;;;6127286;23;20010;-77
2022/11/15 03:20:28;;;;;;;11.88;1.80;;;12.30;1.00;;;;;;6127179;23;20002;-76
2022/11/15 03:23:00;;;;;;;10.25;2.25;;;12.30;1.00;;;;;;6123915;23;20416;-77
2022/11/15 03:25:27;;;;;;;17.38;2.33;;;12.20;1.00;;;;;;6126824;23;20437;-77
2022/11/15 03:27:56;;;;;;;13.95;2.40;;;12.20;1.00;;;;;;6127044;23;20077;-75
2022/11/15 03:30:21;;;;;;;17.60;2.15;;;12.20;1.00;;;;;;6126774;23;20073;-76
2022/11/15 03:32:51;;;;;;;;;;;12.30;1.00;;;;;;6127172;23;20036;-77
2022/11/15 03:35:24;;;;;;;16.48;2.22;;;12.30;23.60;;;;;;6109420;23;19916;-77
2022/11/15 03:38:00;;;;;;;12.45;2.35;;;12.20;95.70;;;;;;6127247;23;20076;-75
2022/11/15 03:40:38;;;;;;;16.85;2.75;;;12.20;99.90;;;;;;6126923;23;20026;-75
2022/11/15 03:43:10;;;;;;;14.93;2.22;;;12.20;99.90;;;;;;6126548;23;20081;-76
2022/11/15 03:45:42;;;;;;;15.57;2.58;;;12.20;99.90;;;;;;6126988;23;20081;-77
2022/11/15 03:48:13;;;;;;;14.75;1.95;;;12.10;99.90;;;;;;6127064;23;20009;-77
2022/11/15 03:50:41;;;;;;;15.02;2.13;;;12.10;99.90;;;;;;6124839;23;20009;-77
2022/11/15 03:53:07;;;;;;;10.25;2.08;;;12.10;1.00;;;;;;6126123;23;20006;-76
2022/11/15 03:55:33;;;;;;;;;;;12.00;1.00;;;;;;6127394;23;20073;-77
2022/11/15 03:58:00;;;;;;;12.98;2.13;;;12.00;1.00;;;;;;6126753;23;20247;-76
2022/11/15 04:00:27;;;;;;;17.38;1.95;;;12.00;1.00;;;;;;6126945;23;20516;-76
2022/11/15 04:02:53;;;;;;;11.82;2.50;;;12.00;1.00;;;;;;6126368;23;20345;-76
2022/11/15 04:05:18;;;;;;;;;;;12.00;1.00;;;;;;6127188;23;20002;-75
2022/11/15 04:07:44;;;;;;;12.45;1.92;;;12.00;1.00;;;;;;6125192;23;19995;-75
2022/11/15 04:10:11;;;;;;;16.85;2.63;;;11.90;1.00;;;;;;6126582;23;20006;-77
2022/11/15 04:12:41;;;;;;;14.88;2.20;;;11.90;1.00;;;;;;6126080;23;20028;-77
2022/11/15 04:15:09;;;;;;;17.55;2.67;;;11.90;1.00;;;;;;6126944;23;19998;-75
2022/11/15 04:17:38;;;;;;;16.55;2.50;;;11.80;1.00;;;;;;6126696;23;20404;-77
2022/11/15 04:25:45;;;;;;;19.10;2.50;;;11.80;1.00;;;;;;6126218;23;20013;-79
2022/11/15 04:28:12;;;;;;;18.25;2.42;;;11.80;16.20;;;;;;6126544;23;20006;-79
2022/11/15 04:30:38;;;;;;;15.43;2.45;;;11.70;56.60;;;;;;6126476;23;20080;-78
2022/11/15 04:33:04;;;;;;;17.63;4.05;;;11.70;83.80;;;;;;6126441;23;20006;-79
2022/11/15 04:35:29;;;;;;;;;;;11.70;96.50;;;;;;6126772;23;19998;-80
2022/11/15 04:37:56;;;;;;;16.05;2.53;;;11.70;99.90;;;;;;6126475;23;20248;-77
2022/11/15 04:40:22;;;;;;;12.32;2.72;;;11.70;99.90;;;;;;6126498;23;20008;-79
2022/11/15 04:42:48;;;;;;;;;;;11.70;99.90;;;;;;6107495;23;20092;-80
2022/11/15 04:45:14;;;;;;;17.33;2.72;;;11.80;99.90;;;;;;6126831;23;19905;-79
2022/11/15 04:47:39;;;;;;;17.60;2.50;;;11.80;99.90;;;;;;6126369;23;20013;-79
2022/11/15 04:50:07;;;;;;;14.98;3.60;;;11.80;99.90;;;;;;6126480;23;20002;-81
2022/11/15 04:52:33;;;;;;;10.93;2.00;;;11.90;99.90;;;;;;6126138;23;20010;-82
2022/11/15 04:54:58;;;;;;;;;;;11.80;99.90;;;;;;6126910;23;20010;-81
2022/11/15 04:57:24;;;;;;;;;;;11.90;99.90;;;;;;6127095;23;19904;-80
2022/11/15 04:59:49;;;;;;;;;;;11.80;99.90;;;;;;6126970;23;20236;-79
2022/11/15 05:02:15;;;;;;;12.73;2.40;;;11.80;99.90;;;;;;6126518;23;20023;-79
2022/11/15 05:04:41;;;;;;;9.63;2.20;;;11.90;99.90;;;;;;6126426;23;20013;-82
2022/11/15 05:07:06;;;;;;;14.68;2.90;;;11.80;99.90;;;;;;6126441;23;20444;-81
2022/11/15 05:09:32;;;;;;;11.32;2.38;;;11.90;99.90;;;;;;6126301;23;20006;-79
2022/11/15 05:11:58;;;;;;;;;;;11.90;99.90;;;;;;6127816;23;20429;-78
2022/11/15 05:14:23;;;;;;;;;;;11.90;99.90;;;;;;6129137;23;19904;-79
2022/11/15 05:16:49;;;;;;;;;;;11.90;99.90;;;;;;6128896;23;19901;-82
2022/11/15 05:19:14;;;;;;;;;;;11.90;99.90;;;;;;6128761;23;19979;-81
2022/11/15 05:21:40;;;;;;;;;;;11.90;99.90;;;;;;6128679;23;19940;-80
2022/11/15 05:24:06;;;;;;;;;;;11.90;99.90;;;;;;6128231;23;19912;-79
2022/11/15 05:26:31;;;;;;;;;;;11.90;99.90;;;;;;6128682;23;20324;-79
2022/11/15 05:28:59;;;;;;;10.57;2.10;;;11.90;99.90;;;;;;6127860;23;19901;-80
2022/11/15 05:31:26;;;;;;;14.38;2.13;;;11.90;99.90;;;;;;6128316;23;20061;-80
2022/11/15 05:33:53;;;;;;;11.50;2.13;;;12.00;99.90;;;;;;6127714;23;20001;-79
2022/11/15 05:36:35;;;;;;;13.27;2.58;;;12.00;99.90;;;;;;6127834;23;20001;-77
2022/11/15 05:39:02;;;;;;;11.35;2.10;;;12.00;99.90;;;;;;6128185;23;20013;-79
2022/11/15 05:41:37;;;;;;;10.90;2.10;;;12.00;99.90;;;;;;6128061;23;20385;-79
2022/11/15 05:44:06;;;;;;;11.05;2.10;;;12.10;99.90;;;;;;6125920;23;20441;-79
2022/11/15 05:46:33;;;;;;;12.10;2.10;;;12.10;99.90;;;;;;6128075;23;20028;-80
2022/11/15 05:48:59;;;;;;;15.45;2.60;;;12.10;99.90;;;;;;6127961;23;20012;-80
2022/11/15 05:51:26;;;;;;;15.52;2.10;;;12.10;99.90;;;;;;6108635;23;20021;-79
2022/11/15 05:53:55;;;;;;;14.25;2.42;;;12.10;99.90;;;;;;6127267;23;20006;-77
2022/11/15 05:56:20;;;;;;;10.00;2.15;;;12.10;99.90;;;;;;6127684;23;20073;-79
2022/11/15 05:58:46;;;;;;;;;;;12.10;99.90;;;;;;6128232;23;20068;-81
2022/11/15 06:01:12;;;;;;;10.10;1.80;;;12.10;99.90;;;;;;6127928;23;19905;-79
2022/11/15 06:03:38;;;;;;;10.82;2.28;;;12.10;99.90;;;;;;6127362;23;20077;-79
2022/11/15 06:06:03;;;;;;;12.10;2.10;;;12.10;99.90;;;;;;6127930;23;20021;-79
2022/11/15 06:08:29;;;;;;;;;;;12.10;99.90;;;;;;6128482;23;20010;-80
2022/11/15 06:10:54;;;;;;;6.20;1.83;;;12.10;99.90;;;;;;6127505;23;19901;-80
2022/11/15 06:13:20;;;;;;;12.18;2.92;;;12.00;99.90;;;;;;6127300;23;20053;-78
2022/11/15 06:15:46;;;;;;;9.50;2.13;;;12.00;99.90;;;;;;6127705;23;20080;-80
2022/11/15 06:18:12;;;;;;;8.68;1.70;;;12.00;99.90;;;;;;6127439;23;20413;-81
2022/11/15 06:20:37;;;;;;;7.88;1.73;;;12.00;99.90;;;;;;6127519;23;20007;-80
2022/11/15 06:23:04;;;;;;;13.75;1.85;;;12.00;99.90;;;;;;6126805;23;20081;-81
2022/11/15 06:25:31;;;;;;;10.60;1.92;;;12.00;99.90;;;;;;6127661;23;20029;-78
2022/11/15 06:27:58;;;;;;;11.45;2.35;;;12.00;99.90;;;;;;6128030;23;20028;-80
2022/11/15 06:30:25;;;;;;;15.80;2.13;;;12.00;99.90;;;;;;6127643;23;20515;-82
2022/11/15 06:32:51;;;;;;;13.65;2.30;;;12.00;99.90;;;;;;6127212;23;20437;-78
2022/11/15 06:35:17;;;;;;;;;;;12.00;99.90;;;;;;6128590;23;20026;-79
2022/11/15 06:37:43;;;;;;;12.52;3.00;;;12.00;99.90;;;;;;6128156;23;20240;-80
2022/11/15 06:40:10;;;;;;;18.08;2.72;;;12.00;99.90;;;;;;6127463;23;20026;-79
2022/11/15 06:42:36;;;;;;;11.15;2.20;;;12.10;99.90;;;;;;6127469;23;20441;-80
2022/11/15 06:45:01;;;;;;;;;;;12.10;99.90;;;;;;6127923;23;20009;-81
2022/11/15 06:47:27;;;;;;;8.75;2.17;;;12.10;99.90;;;;;;6127176;23;19916;-79
2022/11/15 06:49:53;;;;;;;;;;;12.10;99.90;;;;;;6128088;23;20069;-78
2022/11/15 06:52:19;;;;;;;13.70;2.70;;;12.10;99.90;;;;;;6092837;23;19917;-79
2022/11/15 06:54:45;;;;;;;13.40;2.42;;;12.20;99.90;;;;;;6127354;23;19998;-81
2022/11/15 06:57:10;;;;;;;;;;;12.30;99.90;;;;;;6127769;23;20002;-78
2022/11/15 06:59:37;;;;;;;11.02;2.20;;;12.20;99.90;;;;;;6126664;23;20320;-80
2022/11/15 07:02:03;;;;;;;11.13;2.50;;;12.20;99.90;;;;;;6126432;23;20002;-80
2022/11/15 07:04:29;;;;;;;12.15;2.15;;;12.20;99.90;;;;;;6127820;23;20006;-79
2022/11/15 07:06:54;;;;;;;;;;;12.30;99.90;;;;;;6128832;23;20374;-80
2022/11/15 07:09:20;;;;;;;12.85;2.58;;;12.30;99.90;;;;;;6125441;23;19901;-79
2022/11/15 07:11:46;;;;;;;10.88;2.30;;;12.30;99.90;;;;;;6126378;23;20002;-80
2022/11/15 07:14:12;;;;;;;;;;;12.40;99.90;;;;;;6125945;23;20061;-82
2022/11/15 07:16:38;;;;;;;8.25;2.08;;;12.40;99.90;;;;;;6126581;23;20217;-79
2022/11/15 07:19:03;;;;;;;9.48;2.03;;;12.40;99.90;;;;;;6126676;23;20069;-79
2022/11/15 07:21:29;;;;;;;11.27;2.28;;;12.40;99.90;;;;;;6127146;23;20005;-79
2022/11/15 07:23:55;;;;;;;8.43;2.15;;;12.40;99.90;;;;;;6126373;23;20097;-79
2022/11/15 07:26:21;;;;;;;9.48;1.90;;;12.50;99.90;;;;;;6126935;23;20002;-80
2022/11/15 07:28:47;;;;;;;;;;;12.50;99.90;;;;;;6127656;23;20061;-80
2022/11/15 07:31:15;;;;;;;9.05;2.08;;;12.50;99.90;;;;;;6126941;23;19960;-80
2022/11/15 07:34:01;;;;;;;9.10;1.83;;;12.50;99.90;;;;;;6126168;23;20014;-79
2022/11/15 07:36:26;;;;;;;;;;;12.50;99.90;;;;;;6127774;23;20005;-81
2022/11/15 07:38:52;;;;;;;7.15;1.75;;;12.50;99.90;;;;;;6126882;23;20243;-81
2022/11/15 07:41:18;;;;;;;7.22;1.90;;;12.60;99.90;;;;;;6125336;23;20077;-80
2022/11/15 07:43:43;;;;;;;;;;;12.60;99.90;;;;;;6126871;23;20002;-80
2022/11/15 07:46:09;;;;;;;6.90;1.80;;;12.60;99.90;;;;;;6126652;23;19908;-82
2022/11/15 07:48:36;;;;;;;7.25;1.77;;;12.60;99.90;;;;;;6126068;23;20021;-81
2022/11/15 07:51:02;;;;;;;7.35;1.90;;;12.70;99.90;;;;;;6126876;23;20009;-80
2022/11/15 07:53:28;;;;;;;;;;;12.70;99.90;;;;;;6125427;23;20353;-80
2022/11/15 07:55:54;;;;;;;6.57;1.60;;;12.70;99.90;;;;;;6126875;23;19905;-79
2022/11/15 07:58:19;;;;;;;6.22;1.95;;;12.70;99.90;;;;;;6126647;23;20075;-81
2022/11/15 08:00:45;;;;;;;6.07;1.70;;;12.70;99.90;;;;;;6108306;23;20429;-78
2022/11/15 08:03:13;;;;;;;7.82;1.90;;;12.70;99.90;;;;;;6123445;23;20005;-80
2022/11/15 08:05:41;;;;;;;3.72;1.48;;;12.70;99.90;;;;;;6124400;23;20717;-79
2022/11/15 08:08:08;;;;;;;7.28;1.85;;;12.80;99.90;;;;;;6125384;23;20040;-79
2022/11/15 08:10:35;;;;;;;8.25;1.90;;;12.70;99.90;;;;;;6124586;23;20013;-79
2022/11/15 08:13:03;;;;;;;4.88;1.60;;;12.70;99.90;;;;;;6125814;23;20002;-79
2022/11/15 08:15:29;;;;;;;5.30;1.60;;;12.80;99.90;;;;;;6123753;23;20281;-81
2022/11/15 08:17:57;;;;;;;4.40;1.58;;;12.80;99.90;;;;;;6125187;23;20452;-81
2022/11/15 08:20:24;;;;;;;5.85;1.60;;;12.80;99.90;;;;;;6126516;23;20061;-78
2022/11/15 08:22:49;;;;;;;5.28;1.60;;;12.90;99.90;;;;;;6126035;23;20065;-79
2022/11/15 08:25:15;;;;;;;;;;;12.90;99.90;;;;;;6125391;23;20018;-78
2022/11/15 08:27:41;;;;;;;5.38;1.35;;;13.00;99.90;;;;;;6126701;23;19941;-78
2022/11/15 08:30:07;;;;;;;;;;;13.00;99.90;;;;;;6126960;23;20318;-79
2022/11/15 08:32:33;;;;;;;4.82;1.27;;;13.10;99.90;;;;;;6126792;23;19908;-79
2022/11/15 08:34:59;;;;;;;3.97;1.48;;;13.10;99.90;;;;;;6126199;23;20005;-79
2022/11/15 08:37:24;;;;;;;;;;;13.10;99.90;;;;;;6127019;23;20358;-79
2022/11/15 08:39:50;;;;;;;7.43;1.65;;;13.10;99.90;;;;;;6126549;23;19924;-79
2022/11/15 08:42:16;;;;;;;5.15;1.42;;;13.10;99.90;;;;;;6127152;23;20137;-80
2022/11/15 08:44:42;;;;;;;5.55;1.30;;;13.10;99.90;;;;;;6126862;23;20002;-78
2022/11/15 08:47:10;;;;;;;7.47;1.75;;;13.10;99.90;;;;;;6128686;23;20006;-77
2022/11/15 08:49:36;;;;;;;6.25;1.30;;;13.20;99.90;;;;;;6128661;23;20006;-80
2022/11/15 08:52:02;;;;;;;;;;;13.10;99.90;;;;;;6128737;23;20006;-79
2022/11/15 08:54:28;;;;;;;5.30;1.67;;;13.20;99.90;;;;;;6128437;23;19904;-80
2022/11/15 08:56:53;;;;;;;;;;;13.20;99.90;;;;;;6129685;23;20037;-80
2022/11/15 08:59:19;;;;;;;12.15;2.53;;;13.20;99.90;;;;;;6128817;23;20236;-79
2022/11/15 09:01:45;;;;;;;12.38;2.60;;;13.30;99.90;;;;;;6129164;23;19998;-79
2022/11/15 09:04:10;;;;;;;12.05;2.83;;;13.20;99.90;;;;;;6128525;23;20390;-79
2022/11/15 09:06:36;;;;;;;12.23;2.28;;;13.30;99.90;;;;;;6129085;23;20033;-80
2022/11/15 09:09:02;;;;;;;;;;;13.30;99.90;;;;;;6129240;23;20048;-79
2022/11/15 09:11:28;;;;;;;14.18;2.50;;;13.30;99.90;;;;;;6109655;23;19991;-78
2022/11/15 09:13:53;;;;;;;13.05;2.53;;;13.30;99.90;;;;;;6128470;23;20006;-78
2022/11/15 09:16:20;;;;;;;15.30;2.35;;;13.30;99.90;;;;;;6129288;23;19998;-78
2022/11/15 09:18:45;;;;;;;;;;;13.40;99.90;;;;;;6129651;23;19998;-79
2022/11/15 09:21:11;;;;;;;16.67;2.60;;;13.40;99.90;;;;;;6128549;23;20319;-78
2022/11/15 09:23:38;;;;;;;11.85;2.22;;;13.40;99.90;;;;;;6128083;23;20365;-79
2022/11/15 09:26:05;;;;;;;12.30;2.42;;;13.40;99.90;;;;;;6128496;23;20421;-77
2022/11/15 09:28:31;;;;;;;13.10;2.38;;;13.40;99.90;;;;;;6128877;23;20013;-77
2022/11/15 09:31:05;;;;;;;15.18;2.50;;;13.50;99.90;;;;;;6129188;23;20056;-80
2022/11/15 09:33:31;;;;;;;14.23;3.00;;;13.50;99.90;;;;;;6128403;23;20005;-79
2022/11/15 09:36:14;;;;;;;11.40;2.17;;;13.50;99.90;;;;;;6128480;23;19998;-79
2022/11/15 09:38:40;;;;;;;11.32;2.17;;;13.40;99.90;;;;;;6128340;23;20002;-78
2022/11/15 09:41:13;;;;;;;12.43;2.60;;;13.30;99.90;;;;;;6128265;23;20002;-78
2022/11/15 09:43:59;;;;;;;11.55;2.22;;;13.40;99.90;;;;;;6127885;23;20012;-78
2022/11/15 09:46:44;;;;;;;10.77;2.10;;;13.50;99.90;;;;;;6128350;23;20028;-76
2022/11/15 09:49:14;;;;;;;10.65;1.98;;;13.70;99.90;;;;;;6128578;23;20006;-77
2022/11/15 09:51:46;;;;;;;12.45;2.38;;;13.70;99.90;;;;;;6128475;23;20002;-77
2022/11/15 09:54:30;;;;;;;9.32;1.77;;;13.80;99.90;;;;;;6128139;23;20009;-79
2022/11/15 09:57:11;;;;;;;9.30;1.92;;;13.80;99.90;;;;;;6128186;23;20029;-79
2022/11/15 10:00:13;;;;;;;12.50;2.55;;;14.00;99.90;;;;;;6128083;23;20002;-77
2022/11/15 10:02:48;;;;;;;11.93;2.13;;;14.00;99.90;;;;;;6123788;23;20340;-78
2022/11/15 10:05:19;;;;;;;10.35;1.95;;;14.00;99.90;;;;;;6126473;23;20006;-76
2022/11/15 10:07:50;;;;;;;10.23;2.17;;;14.10;99.90;;;;;;6128718;23;20314;-77
2022/11/15 10:10:37;;;;;;;10.98;1.92;;;14.20;99.90;;;;;;6127946;23;20467;-79
2022/11/15 10:13:03;;;;;;;13.10;2.20;;;14.30;99.90;;;;;;6128226;23;20026;-79
2022/11/15 10:15:29;;;;;;;9.52;2.00;;;14.30;94.40;;;;;;6128542;23;20458;-78
2022/11/15 10:18:07;;;;;;;;;;;14.30;1.00;;;;;;6128195;23;20081;-79
2022/11/15 10:20:56;;;;;;;9.48;2.20;;;15.10;1.00;;;;;;6107321;23;19908;-78
2022/11/15 10:23:23;;;;;;;14.15;2.85;;;15.60;99.90;;;;;;6126847;23;20049;-78
2022/11/15 10:25:54;;;;;;;12.98;2.20;;;16.00;99.90;;;;;;6127115;23;20077;-79
2022/11/15 10:28:28;;;;;;;13.70;2.20;;;17.20;1.00;;;;;;6127711;23;20053;-80
2022/11/15 10:30:56;;;;;;;13.63;2.50;;;18.00;99.90;;;;;;6127711;23;20009;-78
2022/11/15 10:33:36;;;;;;;11.20;2.40;;;19.40;99.90;;;;;;6127851;23;20433;-77
2022/11/15 10:36:08;;;;;;;9.20;2.17;;;19.50;99.90;;;;;;6128041;23;20069;-78
2022/11/15 10:38:52;;;;;;;12.10;2.50;;;18.20;99.90;;;;;;6127988;23;20002;-79
2022/11/15 10:41:21;;;;;;;12.68;2.60;;;18.00;99.90;;;;;;6128033;23;20005;-77
2022/11/15 10:44:07;;;;;;;13.70;2.60;;;18.60;99.90;;;;;;6127723;23;20002;-80
2022/11/15 10:46:38;;;;;;;17.00;3.15;;;18.40;99.90;;;;;;6117150;23;20352;-78
2022/11/15 10:49:25;;;;;;;13.88;2.67;;;17.50;99.90;;;;;;6128245;23;20002;-79
2022/11/15 10:52:03;;;;;;;13.52;3.10;;;16.90;99.90;;;;;;6127750;23;20460;-78
2022/11/15 10:54:54;;;;;;;16.50;3.15;;;16.70;99.90;;;;;;6127424;23;20005;-79
2022/11/15 10:57:23;;;;;;;13.35;2.47;;;17.90;99.90;;;;;;6128231;23;20025;-79
2022/11/15 11:00:00;;;;;;;13.98;2.83;;;19.20;99.90;;;;;;6127732;23;20076;-78
2022/11/15 11:02:38;;;;;;;11.15;2.40;;;18.50;99.90;;;;;;6128290;23;20006;-80
2022/11/15 11:05:24;;;;;;;11.88;2.53;;;18.70;99.90;;;;;;6127706;23;20025;-79
2022/11/15 11:08:01;;;;;;;14.55;2.88;;;17.80;99.90;;;;;;6127871;23;20507;-79
2022/11/15 11:10:27;;;;;;;13.70;3.05;;;18.20;99.90;;;;;;6127550;23;20006;-79
2022/11/15 11:12:53;;;;;;;13.27;2.60;;;18.90;99.90;;;;;;6127393;23;20006;-80
2022/11/15 11:15:19;;;;;;;12.18;2.50;;;23.50;99.90;;;;;;6127639;23;20337;-79
2022/11/15 11:18:11;;;;;;;12.32;2.55;;;25.10;47.20;;;;;;6126995;23;20009;-79
2022/11/15 11:20:44;;;;;;;10.23;2.63;;;25.70;11.50;;;;;;6127824;23;20002;-79
2022/11/15 11:23:29;;;;;;;13.93;3.05;;;23.20;34.50;;;;;;6127233;23;20092;-79
2022/11/15 11:26:23;;;;;;;9.50;2.50;;;22.30;26.20;;;;;;6127628;23;20002;-77
2022/11/15 11:29:01;;;;;;;12.32;2.75;;;20.80;38.90;;;;;;6127558;23;20009;-78
2022/11/15 11:31:47;;;;;;;12.00;2.97;;;19.40;99.90;;;;;;6126511;23;20352;-78
2022/11/15 11:34:25;;;;;;;10.40;2.20;;;18.30;99.90;;;;;;6127925;23;20025;-76
2022/11/15 11:36:57;;;;;;;15.57;2.65;;;17.50;99.90;;;;;;6127577;23;19998;-77
2022/11/15 11:39:29;;;;;;;15.18;2.65;;;17.20;99.90;;;;;;6127170;23;20002;-78
2022/11/15 11:42:01;;;;;;;12.82;2.90;;;17.20;99.90;;;;;;6125924;23;20112;-76
2022/11/15 11:44:49;;;;;;;14.38;2.45;;;17.10;99.90;;;;;;6127126;23;19998;-77
2022/11/15 11:47:24;;;;;;;12.20;2.13;;;16.60;99.90;;;;;;6126820;23;20129;-77
2022/11/15 11:49:52;;;;;;;14.80;2.58;;;16.10;99.90;;;;;;6127411;23;20002;-77
2022/11/15 11:52:33;;;;;;;12.65;2.65;;;16.10;99.90;;;;;;6126311;23;20029;-76
2022/11/15 11:55:22;;;;;;;10.18;2.35;;;16.10;99.90;;;;;;6127296;23;20002;-77
2022/11/15 11:58:21;;;;;;;8.70;2.20;;;17.40;99.90;;;;;;6127132;23;20073;-77
2022/11/15 12:00:55;;;;;;;11.20;2.45;;;18.10;91.30;;;;;;6127204;23;20456;-77
2022/11/15 12:03:42;;;;;;;10.73;2.30;;;17.20;95.20;;;;;;6121082;23;19998;-76
2022/11/15 12:06:35;;;;;;;9.18;2.40;;;19.60;70.60;;;;;;6119274;23;20029;-77
2022/11/15 12:09:03;;;;;;;10.30;2.60;;;22.50;16.70;;;;;;6127098;23;20006;-74
2022/11/15 12:11:47;;;;;;;8.27;2.20;;;23.60;4.80;;;;;;6120125;23;20389;-76
2022/11/15 12:14:35;;;;;;;9.00;2.37;;;24.00;1.00;;;;;;6118385;23;20009;-75
2022/11/15 12:17:01;;;;;;;9.95;2.50;;;24.00;1.00;;;;;;6127109;23;20796;-76
2022/11/15 12:19:29;;;;;;;9.95;2.70;;;24.00;1.00;;;;;;6126834;23;20026;-76
2022/11/15 12:22:11;;;;;;;8.57;1.88;;;24.40;1.00;;;;;;6127048;23;20006;-76
2022/11/15 12:24:57;;;;;;;9.25;2.13;;;24.20;1.00;;;;;;6126662;23;20114;-76
2022/11/15 12:27:46;;;;;;;11.55;2.65;;;21.30;1.00;;;;;;6127381;23;20018;-77
2022/11/15 12:30:21;;;;;;;12.95;3.13;;;22.90;1.00;;;;;;6127120;23;20002;-78
2022/11/15 12:33:01;;;;;;;8.65;2.10;;;24.30;1.00;;;;;;6126557;23;20006;-75
2022/11/15 12:35:42;;;;;;;10.60;2.17;;;22.90;1.00;;;;;;6126931;23;20008;-77
2022/11/15 12:38:12;;;;;;;10.07;2.42;;;20.60;1.00;;;;;;6126181;23;20008;-77
2022/11/15 12:41:06;;;;;;;11.57;2.38;;;19.40;21.20;;;;;;6127325;23;19998;-77
2022/11/15 12:43:38;;;;;;;14.43;2.40;;;18.60;35.90;;;;;;6104053;23;20006;-76
2022/11/15 12:46:11;;;;;;;12.65;2.65;;;18.00;60.60;;;;;;6127112;23;20002;-76
2022/11/15 12:48:37;;;;;;;10.75;2.55;;;17.60;51.50;;;;;;6127000;23;20002;-77
2022/11/15 12:51:03;;;;;;;18.17;3.10;;;17.60;89.70;;;;;;6126908;23;20069;-77
2022/11/15 12:53:31;;;;;;;10.43;1.98;;;17.90;65.00;;;;;;6126803;23;20002;-77
2022/11/15 12:56:03;;;;;;;10.38;2.10;;;18.90;35.10;;;;;;6127059;23;20029;-76
2022/11/15 12:58:52;;;;;;;11.13;2.40;;;18.90;44.20;;;;;;6126876;23;20005;-76
2022/11/15 13:01:30;;;;;;;12.00;2.38;;;19.60;24.50;;;;;;6124994;23;20006;-77
2022/11/15 13:04:08;;;;;;;12.35;2.60;;;21.50;7.90;;;;;;6127060;23;20077;-77
2022/11/15 13:06:41;;;;;;;9.60;2.30;;;22.30;1.10;;;;;;6127060;23;20006;-77
2022/11/15 13:09:32;;;;;;;9.10;2.15;;;23.40;1.00;;;;;;6127207;23;20006;-78
2022/11/15 13:12:07;;;;;;;9.38;2.20;;;23.30;1.00;;;;;;6126996;23;20319;-76
2022/11/15 13:14:52;;;;;;;15.10;2.58;;;21.70;1.00;;;;;;6124967;23;20005;-76
2022/11/15 13:17:23;;;;;;;11.15;2.42;;;19.90;6.40;;;;;;6126746;23;20006;-77
2022/11/15 13:20:01;;;;;;;17.60;2.80;;;18.50;24.10;;;;;;6127190;23;19998;-75